createdAt,value
2023-02-25T00:00:16.331Z,4.70
2023-02-25T00:01:16.322Z,4.71
2023-02-25T00:02:16.345Z,4.71
2023-02-25T00:03:16.342Z,4.71
2023-02-25T00:04:16.299Z,4.77
2023-02-25T00:05:16.273Z,4.75
2023-02-25T00:06:16.284Z,4.78
2023-02-25T00:07:16.270Z,4.75
2023-02-25T00:08:16.286Z,4.75
2023-02-25T00:09:16.232Z,4.77
2023-02-25T00:10:16.235Z,4.70
2023-02-25T00:11:16.211Z,4.73
2023-02-25T00:12:16.210Z,4.70
2023-02-25T00:13:18.368Z,4.67
2023-02-25T00:14:16.174Z,4.68
2023-02-25T00:15:16.172Z,4.70
2023-02-25T00:16:16.213Z,4.77
2023-02-25T00:17:23.253Z,4.80
2023-02-25T00:18:16.127Z,4.71
2023-02-25T00:19:16.118Z,4.71
2023-02-25T00:20:16.101Z,4.77
2023-02-25T00:21:16.095Z,4.78
2023-02-25T00:22:16.101Z,4.71
2023-02-25T00:23:16.093Z,4.77
2023-02-25T00:24:17.170Z,4.71
2023-02-25T00:25:16.060Z,4.82
2023-02-25T00:26:16.043Z,4.78
2023-02-25T00:27:16.029Z,4.77
2023-02-25T00:28:16.047Z,4.71
2023-02-25T00:29:16.005Z,4.82
2023-02-25T00:30:16.006Z,4.73
2023-02-25T00:31:16.128Z,4.82
2023-02-25T00:32:16.166Z,4.73
2023-02-25T00:33:15.972Z,4.80
2023-02-25T00:34:15.977Z,4.90
2023-02-25T00:35:15.952Z,4.74
2023-02-25T00:36:15.958Z,4.73
2023-02-25T00:37:15.958Z,4.87
2023-02-25T00:38:16.371Z,4.86
2023-02-25T00:39:15.962Z,4.80
2023-02-25T00:40:15.913Z,4.82
2023-02-25T00:41:15.875Z,4.82
2023-02-25T00:42:15.867Z,4.80
2023-02-25T00:43:15.878Z,4.87
2023-02-25T00:44:15.887Z,4.86
2023-02-25T00:45:15.837Z,4.80
2023-02-25T00:46:15.918Z,4.82
2023-02-25T00:47:15.818Z,4.89
2023-02-25T00:48:15.803Z,4.77
2023-02-25T00:49:31.427Z,4.89
2023-02-25T00:50:16.858Z,4.82
2023-02-25T00:51:15.764Z,4.87
2023-02-25T00:52:15.766Z,4.77
2023-02-25T00:53:15.744Z,4.78
2023-02-25T00:54:15.743Z,4.87
2023-02-25T00:55:15.729Z,4.80
2023-02-25T00:56:15.802Z,4.86
2023-02-25T00:57:15.700Z,4.86
2023-02-25T00:58:15.705Z,4.86
2023-02-25T00:59:15.676Z,4.86
2023-02-25T01:00:15.688Z,4.80
2023-02-25T01:01:15.748Z,4.87
2023-02-25T01:02:15.653Z,4.87
2023-02-25T01:03:15.634Z,4.86
2023-02-25T01:04:15.622Z,4.87
2023-02-25T01:05:15.624Z,4.77
2023-02-25T01:06:15.612Z,4.87
2023-02-25T01:07:15.585Z,4.80
2023-02-25T01:08:15.581Z,4.78
2023-02-25T01:09:15.595Z,4.74
2023-02-25T01:10:15.555Z,4.80
2023-02-25T01:11:15.552Z,4.86
2023-02-25T01:12:15.561Z,4.87
2023-02-25T01:13:15.522Z,4.86
2023-02-25T01:14:15.518Z,4.89
2023-02-25T01:15:15.501Z,4.86
2023-02-25T01:16:15.593Z,4.87
2023-02-25T01:17:15.476Z,4.87
2023-02-25T01:18:15.491Z,4.80
2023-02-25T01:19:15.472Z,4.84
2023-02-25T01:20:15.440Z,4.73
2023-02-25T01:21:15.460Z,4.78
2023-02-25T01:22:15.431Z,4.78
2023-02-25T01:23:15.410Z,4.86
2023-02-25T01:24:15.407Z,4.87
2023-02-25T01:25:15.390Z,4.87
2023-02-25T01:26:15.381Z,4.90
2023-02-25T01:27:15.372Z,4.87
2023-02-25T01:28:15.384Z,4.86
2023-02-25T01:29:15.341Z,4.82
2023-02-25T01:30:15.329Z,4.80
2023-02-25T01:31:15.533Z,4.90
2023-02-25T01:32:15.509Z,4.87
2023-02-25T01:33:15.299Z,4.93
2023-02-25T01:34:15.285Z,4.87
2023-02-25T01:35:15.276Z,4.78
2023-02-25T01:36:15.275Z,4.92
2023-02-25T01:37:15.269Z,4.84
2023-02-25T01:38:15.247Z,4.86
2023-02-25T01:39:15.232Z,4.84
2023-02-25T01:40:15.223Z,4.86
2023-02-25T01:41:15.207Z,4.82
2023-02-25T01:42:15.213Z,4.84
2023-02-25T01:43:15.203Z,4.84
2023-02-25T01:44:15.206Z,4.86
2023-02-25T01:45:15.183Z,4.84
2023-02-25T01:46:15.180Z,4.80
2023-02-25T01:47:15.183Z,4.84
2023-02-25T01:48:15.149Z,4.93
2023-02-25T01:49:15.121Z,4.89
2023-02-25T01:50:15.128Z,4.84
2023-02-25T01:51:15.108Z,4.84
2023-02-25T01:52:15.094Z,4.86
2023-02-25T01:53:15.102Z,4.87
2023-02-25T01:54:15.085Z,4.82
2023-02-25T01:55:15.067Z,4.87
2023-02-25T01:56:15.048Z,4.87
2023-02-25T01:57:15.075Z,4.90
2023-02-25T01:58:15.027Z,4.87
2023-02-25T01:59:15.028Z,4.90
2023-02-25T02:00:15.027Z,4.80
2023-02-25T02:01:15.178Z,4.80
2023-02-25T02:02:15.030Z,4.75
2023-02-25T02:03:14.972Z,4.74
2023-02-25T02:04:14.964Z,4.70
2023-02-25T02:05:14.959Z,4.80
2023-02-25T02:06:14.940Z,4.75
2023-02-25T02:07:14.930Z,4.74
2023-02-25T02:08:14.920Z,4.84
2023-02-25T02:09:14.918Z,4.71
2023-02-25T02:10:14.909Z,4.82
2023-02-25T02:11:14.895Z,4.73
2023-02-25T02:12:14.872Z,4.74
2023-02-25T02:13:14.862Z,4.74
2023-02-25T02:14:14.851Z,4.78
2023-02-25T02:15:14.850Z,4.71
2023-02-25T02:16:14.913Z,4.68
2023-02-25T02:17:14.826Z,4.75
2023-02-25T02:18:14.818Z,4.75
2023-02-25T02:19:14.792Z,4.70
2023-02-25T02:20:14.804Z,4.77
2023-02-25T02:21:14.775Z,4.68
2023-02-25T02:22:14.761Z,4.75
2023-02-25T02:23:14.794Z,4.71
2023-02-25T02:24:14.742Z,4.67
2023-02-25T02:25:14.790Z,4.68
2023-02-25T02:26:14.713Z,4.73
2023-02-25T02:27:14.854Z,4.70
2023-02-25T02:28:14.695Z,4.73
2023-02-25T02:29:14.679Z,4.74
2023-02-25T02:30:14.685Z,4.70
2023-02-25T02:31:14.845Z,4.80
2023-02-25T02:32:14.897Z,4.78
2023-02-25T02:33:14.652Z,4.78
2023-02-25T02:34:14.633Z,4.90
2023-02-25T02:35:14.621Z,4.87
2023-02-25T02:36:14.612Z,4.80
2023-02-25T02:37:14.614Z,4.78
2023-02-25T02:38:14.605Z,4.74
2023-02-25T02:39:14.579Z,4.82
2023-02-25T02:40:14.583Z,4.87
2023-02-25T02:41:14.545Z,4.78
2023-02-25T02:42:14.547Z,4.84
2023-02-25T02:43:14.524Z,4.82
2023-02-25T02:44:14.518Z,4.89
2023-02-25T02:45:14.530Z,4.82
2023-02-25T02:46:14.545Z,4.87
2023-02-25T02:47:14.479Z,4.84
2023-02-25T02:48:14.517Z,4.92
2023-02-25T02:49:14.455Z,4.87
2023-02-25T02:50:14.458Z,4.86
2023-02-25T02:51:14.449Z,4.89
2023-02-25T02:52:14.425Z,4.93
2023-02-25T02:53:14.410Z,4.87
2023-02-25T02:54:14.431Z,4.84
2023-02-25T02:55:14.391Z,4.82
2023-02-25T02:56:14.388Z,4.84
2023-02-25T02:57:14.382Z,4.80
2023-02-25T02:58:14.368Z,4.89
2023-02-25T02:59:14.414Z,4.89
2023-02-25T03:00:14.342Z,4.89
2023-02-25T03:01:14.415Z,4.86
2023-02-25T03:02:14.311Z,4.93
2023-02-25T03:03:14.297Z,4.84
2023-02-25T03:04:14.437Z,4.86
2023-02-25T03:05:14.280Z,4.84
2023-02-25T03:06:14.269Z,4.92
2023-02-25T03:07:14.282Z,4.90
2023-02-25T03:08:14.243Z,4.94
2023-02-25T03:09:14.238Z,4.84
2023-02-25T03:10:14.249Z,4.86
2023-02-25T03:11:14.236Z,4.84
2023-02-25T03:12:14.200Z,4.94
2023-02-25T03:13:14.192Z,4.86
2023-02-25T03:14:14.188Z,4.77
2023-02-25T03:15:14.175Z,4.84
2023-02-25T03:16:14.195Z,4.82
2023-02-25T03:17:14.171Z,4.84
2023-02-25T03:18:14.137Z,4.80
2023-02-25T03:19:14.139Z,4.77
2023-02-25T03:20:14.203Z,4.78
2023-02-25T03:21:14.100Z,4.80
2023-02-25T03:22:14.114Z,4.77
2023-02-25T03:23:14.099Z,4.84
2023-02-25T03:24:14.107Z,4.86
2023-02-25T03:25:14.076Z,4.77
2023-02-25T03:26:14.081Z,4.78
2023-02-25T03:27:14.051Z,4.80
2023-02-25T03:28:14.037Z,4.73
2023-02-25T03:29:14.016Z,4.80
2023-02-25T03:30:14.018Z,4.80
2023-02-25T03:31:13.997Z,4.75
2023-02-25T03:32:14.175Z,4.70
2023-02-25T03:33:13.976Z,4.74
2023-02-25T03:34:14.010Z,4.71
2023-02-25T03:35:13.962Z,4.70
2023-02-25T03:36:13.982Z,4.75
2023-02-25T03:37:13.946Z,4.75
2023-02-25T03:38:13.947Z,4.78
2023-02-25T03:39:13.909Z,4.68
2023-02-25T03:40:13.909Z,4.75
2023-02-25T03:41:13.890Z,4.74
2023-02-25T03:42:13.879Z,4.70
2023-02-25T03:43:13.878Z,4.68
2023-02-25T03:44:13.862Z,4.77
2023-02-25T03:45:13.855Z,4.77
2023-02-25T03:46:13.858Z,4.75
2023-02-25T03:47:13.835Z,4.73
2023-02-25T03:48:13.815Z,4.68
2023-02-25T03:49:13.805Z,4.73
2023-02-25T03:50:13.803Z,4.71
2023-02-25T03:51:13.775Z,4.75
2023-02-25T03:52:13.789Z,4.73
2023-02-25T03:53:13.782Z,4.77
2023-02-25T03:54:13.748Z,4.70
2023-02-25T03:55:13.744Z,4.73
2023-02-25T03:56:13.730Z,4.74
2023-02-25T03:57:13.708Z,4.77
2023-02-25T03:58:13.710Z,4.78
2023-02-25T03:59:13.687Z,4.78
2023-02-25T04:00:13.686Z,4.71
2023-02-25T04:01:16.721Z,4.80
2023-02-25T04:02:13.693Z,4.66
2023-02-25T04:03:13.657Z,4.73
2023-02-25T04:04:13.665Z,4.71
2023-02-25T04:05:13.626Z,4.77
2023-02-25T04:06:13.623Z,4.80
2023-02-25T04:07:13.596Z,4.78
2023-02-25T04:08:13.616Z,4.73
2023-02-25T04:09:13.582Z,4.71
2023-02-25T04:10:13.582Z,4.70
2023-02-25T04:11:13.550Z,4.74
2023-02-25T04:12:13.559Z,4.78
2023-02-25T04:13:13.551Z,4.73
2023-02-25T04:14:13.519Z,4.73
2023-02-25T04:15:13.505Z,4.84
2023-02-25T04:16:13.592Z,4.70
2023-02-25T04:17:13.492Z,4.71
2023-02-25T04:18:13.491Z,4.73
2023-02-25T04:19:13.470Z,4.70
2023-02-25T04:20:13.469Z,4.73
2023-02-25T04:21:13.441Z,4.74
2023-02-25T04:22:13.429Z,4.73
2023-02-25T04:23:13.430Z,4.75
2023-02-25T04:24:13.432Z,4.78
2023-02-25T04:25:13.408Z,4.67
2023-02-25T04:26:13.397Z,4.71
2023-02-25T04:27:13.372Z,4.71
2023-02-25T04:28:13.377Z,4.70
2023-02-25T04:29:13.369Z,4.78
2023-02-25T04:30:13.345Z,4.73
2023-02-25T04:31:13.431Z,4.77
2023-02-25T04:32:13.481Z,4.75
2023-02-25T04:33:13.309Z,4.71
2023-02-25T04:34:13.416Z,4.78
2023-02-25T04:35:13.291Z,4.75
2023-02-25T04:36:13.284Z,4.84
2023-02-25T04:37:13.267Z,4.70
2023-02-25T04:38:13.262Z,4.74
2023-02-25T04:39:13.256Z,4.71
2023-02-25T04:40:13.255Z,4.75
2023-02-25T04:41:13.235Z,4.73
2023-02-25T04:42:13.212Z,4.77
2023-02-25T04:43:13.200Z,4.78
2023-02-25T04:44:13.188Z,4.78
2023-02-25T04:45:13.182Z,4.90
2023-02-25T04:46:13.216Z,4.86
2023-02-25T04:47:13.154Z,4.86
2023-02-25T04:48:13.157Z,4.86
2023-02-25T04:49:13.128Z,4.82
2023-02-25T04:50:13.134Z,4.86
2023-02-25T04:51:13.115Z,4.89
2023-02-25T04:52:13.100Z,4.86
2023-02-25T04:53:13.091Z,4.90
2023-02-25T04:54:13.083Z,4.96
2023-02-25T04:55:13.075Z,4.92
2023-02-25T04:56:13.079Z,4.90
2023-02-25T04:57:13.053Z,4.94
2023-02-25T04:58:13.033Z,4.93
2023-02-25T04:59:13.022Z,4.89
2023-02-25T05:00:13.011Z,4.89
2023-02-25T05:01:13.024Z,4.99
2023-02-25T05:02:12.988Z,4.92
2023-02-25T05:03:12.978Z,4.92
2023-02-25T05:04:12.966Z,4.93
2023-02-25T05:05:13.054Z,4.93
2023-02-25T05:06:12.950Z,4.93
2023-02-25T05:07:12.949Z,4.94
2023-02-25T05:08:12.929Z,4.93
2023-02-25T05:09:12.920Z,4.93
2023-02-25T05:10:12.904Z,4.96
2023-02-25T05:11:12.894Z,4.92
2023-02-25T05:12:12.901Z,4.90
2023-02-25T05:13:12.876Z,4.97
2023-02-25T05:14:12.866Z,4.93
2023-02-25T05:15:12.870Z,4.86
2023-02-25T05:16:12.893Z,4.87
2023-02-25T05:17:12.851Z,4.92
2023-02-25T05:18:12.849Z,4.97
2023-02-25T05:19:12.812Z,4.90
2023-02-25T05:20:13.100Z,4.96
2023-02-25T05:21:12.820Z,4.97
2023-02-25T05:22:12.770Z,5.07
2023-02-25T05:23:12.763Z,5.00
2023-02-25T05:24:12.770Z,4.89
2023-02-25T05:25:12.750Z,4.93
2023-02-25T05:26:12.736Z,4.93
2023-02-25T05:27:12.730Z,4.90
2023-02-25T05:28:12.727Z,4.93
2023-02-25T05:29:12.726Z,4.94
2023-02-25T05:30:12.685Z,5.02
2023-02-25T05:31:12.877Z,5.05
2023-02-25T05:32:12.875Z,4.96
2023-02-25T05:33:12.649Z,4.90
2023-02-25T05:34:12.648Z,5.07
2023-02-25T05:35:12.633Z,5.05
2023-02-25T05:36:12.619Z,5.04
2023-02-25T05:37:12.613Z,5.02
2023-02-25T05:38:12.603Z,4.96
2023-02-25T05:39:12.600Z,5.00
2023-02-25T05:40:12.568Z,4.93
2023-02-25T05:41:12.561Z,4.93
2023-02-25T05:42:12.569Z,4.93
2023-02-25T05:43:12.538Z,4.92
2023-02-25T05:44:12.546Z,4.89
2023-02-25T05:45:12.533Z,4.92
2023-02-25T05:46:12.505Z,4.97
2023-02-25T05:47:12.541Z,4.92
2023-02-25T05:48:12.496Z,4.97
2023-02-25T05:49:12.473Z,4.96
2023-02-25T05:50:12.467Z,4.92
2023-02-25T05:51:12.454Z,4.94
2023-02-25T05:52:12.442Z,4.89
2023-02-25T05:53:12.429Z,4.94
2023-02-25T05:54:12.414Z,4.94
2023-02-25T05:55:12.403Z,4.84
2023-02-25T05:56:12.403Z,4.89
2023-02-25T05:57:12.397Z,4.84
2023-02-25T05:58:12.383Z,4.94
2023-02-25T05:59:12.357Z,4.97
2023-02-25T06:00:12.373Z,4.97
2023-02-25T06:01:12.334Z,4.77
2023-02-25T06:02:12.421Z,4.90
2023-02-25T06:03:12.361Z,4.82
2023-02-25T06:04:12.318Z,4.80
2023-02-25T06:05:12.298Z,4.87
2023-02-25T06:06:12.282Z,4.77
2023-02-25T06:07:12.265Z,4.77
2023-02-25T06:08:12.296Z,4.82
2023-02-25T06:09:12.245Z,4.80
2023-02-25T06:10:12.241Z,4.86
2023-02-25T06:11:12.225Z,4.84
2023-02-25T06:12:12.230Z,4.87
2023-02-25T06:13:12.216Z,4.89
2023-02-25T06:14:12.190Z,4.86
2023-02-25T06:15:12.181Z,4.87
2023-02-25T06:16:12.361Z,4.80
2023-02-25T06:17:12.159Z,4.80
2023-02-25T06:18:19.271Z,4.75
2023-02-25T06:19:12.145Z,4.84
2023-02-25T06:20:12.125Z,4.80
2023-02-25T06:21:12.127Z,4.74
2023-02-25T06:22:12.118Z,4.77
2023-02-25T06:23:12.102Z,4.73
2023-02-25T06:24:12.089Z,4.82
2023-02-25T06:25:12.073Z,4.71
2023-02-25T06:26:12.067Z,4.78
2023-02-25T06:27:12.073Z,4.73
2023-02-25T06:28:12.047Z,4.78
2023-02-25T06:29:12.026Z,4.73
2023-02-25T06:30:12.025Z,4.86
2023-02-25T06:31:12.079Z,4.75
2023-02-25T06:32:12.243Z,4.78
2023-02-25T06:33:11.985Z,4.73
2023-02-25T06:34:11.969Z,4.70
2023-02-25T06:35:11.958Z,4.84
2023-02-25T06:36:11.951Z,4.68
2023-02-25T06:37:11.937Z,4.73
2023-02-25T06:38:11.956Z,4.70
2023-02-25T06:39:11.915Z,4.70
2023-02-25T06:40:11.902Z,4.66
2023-02-25T06:41:11.892Z,4.70
2023-02-25T06:42:11.880Z,4.70
2023-02-25T06:43:11.877Z,4.70
2023-02-25T06:44:12.591Z,4.75
2023-02-25T06:45:11.854Z,4.73
2023-02-25T06:46:11.920Z,4.78
2023-02-25T06:47:11.840Z,4.71
2023-02-25T06:48:11.832Z,4.71
2023-02-25T06:49:11.847Z,4.75
2023-02-25T06:50:11.804Z,4.68
2023-02-25T06:51:11.786Z,4.75
2023-02-25T06:52:11.772Z,4.71
2023-02-25T06:53:11.768Z,4.71
2023-02-25T06:54:11.783Z,4.77
2023-02-25T06:55:11.749Z,4.73
2023-02-25T06:56:11.741Z,4.78
2023-02-25T06:57:11.730Z,4.74
2023-02-25T06:58:12.026Z,4.82
2023-02-25T06:59:11.694Z,4.71
2023-02-25T07:00:11.691Z,4.87
2023-02-25T07:01:11.731Z,4.80
2023-02-25T07:02:11.686Z,4.82
2023-02-25T07:03:11.750Z,4.86
2023-02-25T07:04:11.797Z,4.80
2023-02-25T07:05:11.650Z,4.90
2023-02-25T07:06:11.630Z,4.87
2023-02-25T07:07:11.606Z,4.86
2023-02-25T07:08:11.634Z,4.86
2023-02-25T07:09:11.585Z,4.87
2023-02-25T07:10:11.571Z,4.92
2023-02-25T07:11:13.415Z,4.84
2023-02-25T07:12:11.547Z,4.84
2023-02-25T07:13:11.541Z,4.80
2023-02-25T07:14:11.549Z,4.84
2023-02-25T07:15:11.520Z,4.86
2023-02-25T07:16:11.606Z,4.86
2023-02-25T07:17:11.493Z,4.87
2023-02-25T07:18:11.477Z,4.84
2023-02-25T07:19:11.488Z,4.92
2023-02-25T07:20:11.480Z,4.90
2023-02-25T07:21:11.458Z,4.93
2023-02-25T07:22:11.436Z,4.96
2023-02-25T07:23:11.428Z,4.92
2023-02-25T07:24:11.412Z,4.93
2023-02-25T07:25:11.458Z,4.84
2023-02-25T07:26:11.397Z,4.96
2023-02-25T07:27:11.391Z,4.89
2023-02-25T07:28:11.367Z,4.92
2023-02-25T07:29:11.374Z,4.89
2023-02-25T07:30:11.350Z,4.99
2023-02-25T07:31:11.541Z,4.84
2023-02-25T07:32:11.555Z,4.97
2023-02-25T07:33:11.408Z,4.94
2023-02-25T07:34:11.318Z,4.90
2023-02-25T07:35:11.321Z,4.89
2023-02-25T07:36:11.309Z,4.93
2023-02-25T07:37:11.294Z,4.92
2023-02-25T07:38:11.258Z,4.93
2023-02-25T07:39:11.280Z,4.93
2023-02-25T07:40:11.257Z,4.94
2023-02-25T07:41:11.232Z,4.93
2023-02-25T07:42:11.216Z,4.94
2023-02-25T07:43:11.222Z,4.90
2023-02-25T07:44:11.226Z,4.97
2023-02-25T07:45:11.199Z,5.02
2023-02-25T07:46:11.258Z,5.02
2023-02-25T07:47:11.183Z,4.94
2023-02-25T07:48:11.167Z,4.92
2023-02-25T07:49:11.148Z,4.96
2023-02-25T07:50:12.897Z,4.90
2023-02-25T07:51:11.125Z,4.74
2023-02-25T07:52:11.137Z,4.74
2023-02-25T07:53:11.145Z,4.75
2023-02-25T07:54:11.114Z,4.80
2023-02-25T07:55:11.090Z,4.74
2023-02-25T07:56:11.091Z,4.78
2023-02-25T07:57:11.055Z,4.75
2023-02-25T07:58:11.068Z,4.70
2023-02-25T07:59:11.043Z,4.67
2023-02-25T08:00:11.050Z,4.80
2023-02-25T08:01:11.030Z,4.74
2023-02-25T08:02:11.051Z,4.78
2023-02-25T08:03:10.990Z,4.86
2023-02-25T08:04:11.132Z,4.90
2023-02-25T08:05:10.969Z,4.96
2023-02-25T08:06:10.970Z,4.89
2023-02-25T08:07:10.966Z,5.02
2023-02-25T08:08:10.952Z,5.07
2023-02-25T08:09:10.947Z,5.11
2023-02-25T08:10:10.909Z,5.25
2023-02-25T08:11:10.914Z,5.30
2023-02-25T08:12:10.916Z,5.25
2023-02-25T08:13:10.893Z,5.28
2023-02-25T08:14:10.880Z,5.32
2023-02-25T08:15:10.861Z,5.41
2023-02-25T08:16:10.897Z,5.46
2023-02-25T08:17:10.851Z,5.43
2023-02-25T08:18:10.835Z,5.46
2023-02-25T08:19:10.824Z,5.39
2023-02-25T08:20:10.808Z,5.38
2023-02-25T08:21:10.791Z,5.46
2023-02-25T08:22:10.792Z,5.47
2023-02-25T08:23:10.769Z,5.41
2023-02-25T08:24:10.789Z,5.39
2023-02-25T08:25:10.749Z,5.41
2023-02-25T08:26:10.733Z,5.44
2023-02-25T08:27:10.770Z,5.47
2023-02-25T08:28:10.711Z,5.43
2023-02-25T08:29:10.707Z,5.38
2023-02-25T08:30:10.705Z,5.32
2023-02-25T08:31:10.769Z,5.43
2023-02-25T08:32:10.818Z,5.36
2023-02-25T08:33:10.682Z,5.43
2023-02-25T08:34:10.672Z,5.50
2023-02-25T08:35:10.644Z,5.51
2023-02-25T08:36:10.634Z,5.59
2023-02-25T08:37:10.623Z,5.56
2023-02-25T08:38:10.610Z,5.54
2023-02-25T08:39:10.609Z,5.59
2023-02-25T08:40:10.653Z,5.56
2023-02-25T08:41:10.581Z,5.54
2023-02-25T08:42:10.581Z,5.43
2023-02-25T08:43:10.559Z,5.32
2023-02-25T08:44:10.532Z,5.26
2023-02-25T08:45:10.535Z,5.15
2023-02-25T08:46:10.505Z,5.10
2023-02-25T08:47:10.505Z,5.17
2023-02-25T08:48:10.488Z,5.05
2023-02-25T08:49:10.482Z,4.97
2023-02-25T08:50:10.479Z,4.97
2023-02-25T08:51:10.459Z,4.93
2023-02-25T08:52:10.445Z,5.08
2023-02-25T08:53:10.489Z,5.53
2023-02-25T08:54:10.436Z,5.64
2023-02-25T08:55:10.416Z,5.66
2023-02-25T08:56:10.444Z,5.68
2023-02-25T08:57:10.386Z,5.66
2023-02-25T08:58:10.399Z,5.57
2023-02-25T08:59:10.379Z,5.48
2023-02-25T09:00:10.354Z,5.43
2023-02-25T09:01:10.429Z,5.47
2023-02-25T09:02:10.338Z,5.38
2023-02-25T09:03:10.326Z,5.33
2023-02-25T09:04:10.380Z,5.17
2023-02-25T09:05:10.316Z,5.08
2023-02-25T09:06:10.302Z,4.96
2023-02-25T09:07:10.272Z,4.78
2023-02-25T09:08:10.276Z,4.75
2023-02-25T09:09:10.253Z,4.63
2023-02-25T09:10:10.299Z,4.68
2023-02-25T09:11:10.227Z,4.73
2023-02-25T09:12:10.245Z,4.55
2023-02-25T09:13:10.205Z,4.73
2023-02-25T09:14:10.192Z,4.66
2023-02-25T09:15:10.192Z,4.66
2023-02-25T09:16:10.216Z,4.44
2023-02-25T09:17:10.168Z,4.42
2023-02-25T09:18:10.155Z,4.31
2023-02-25T09:19:10.140Z,4.37
2023-02-25T09:20:10.131Z,4.24
2023-02-25T09:21:10.131Z,4.20
2023-02-25T09:22:10.155Z,4.30
2023-02-25T09:23:10.094Z,4.28
2023-02-25T09:24:10.117Z,4.32
2023-02-25T09:25:10.079Z,4.24
2023-02-25T09:26:10.087Z,4.31
2023-02-25T09:27:10.054Z,4.32
2023-02-25T09:28:10.087Z,4.40
2023-02-25T09:29:10.037Z,4.55
2023-02-25T09:30:10.026Z,4.52
2023-02-25T09:31:10.109Z,4.68
2023-02-25T09:32:10.104Z,4.71
2023-02-25T09:33:10.253Z,4.75
2023-02-25T09:34:10.005Z,4.80
2023-02-25T09:35:09.962Z,5.05
2023-02-25T09:36:09.959Z,5.25
2023-02-25T09:37:09.949Z,5.50
2023-02-25T09:38:09.972Z,5.46
2023-02-25T09:39:09.941Z,5.61
2023-02-25T09:40:09.911Z,5.56
2023-02-25T09:41:09.901Z,5.69
2023-02-25T09:42:09.890Z,5.83
2023-02-25T09:43:09.880Z,6.01
2023-02-25T09:44:09.907Z,6.08
2023-02-25T09:45:09.875Z,6.27
2023-02-25T09:46:09.870Z,6.39
2023-02-25T09:47:09.837Z,6.64
2023-02-25T09:48:09.823Z,6.72
2023-02-25T09:49:09.808Z,6.84
2023-02-25T09:50:09.810Z,7.03
2023-02-25T09:51:09.796Z,7.11
2023-02-25T09:52:09.773Z,7.13
2023-02-25T09:53:09.761Z,7.20
2023-02-25T09:54:09.762Z,7.21
2023-02-25T09:55:09.766Z,7.32
2023-02-25T09:56:09.741Z,7.33
2023-02-25T09:57:09.715Z,7.60
2023-02-25T09:58:09.709Z,7.57
2023-02-25T09:59:09.700Z,7.47
2023-02-25T10:00:09.715Z,7.57
2023-02-25T10:01:09.681Z,7.54
2023-02-25T10:02:09.774Z,7.36
2023-02-25T10:03:09.811Z,7.25
2023-02-25T10:04:09.643Z,7.33
2023-02-25T10:05:09.647Z,7.28
2023-02-25T10:06:09.638Z,7.23
2023-02-25T10:07:09.612Z,7.02
2023-02-25T10:08:09.624Z,7.00
2023-02-25T10:09:09.595Z,6.69
2023-02-25T10:10:09.576Z,6.72
2023-02-25T10:11:09.585Z,6.60
2023-02-25T10:12:09.555Z,6.51
2023-02-25T10:13:09.553Z,6.27
2023-02-25T10:14:09.549Z,6.14
2023-02-25T10:15:09.519Z,6.09
2023-02-25T10:16:09.530Z,5.87
2023-02-25T10:17:09.509Z,5.84
2023-02-25T10:18:09.489Z,5.61
2023-02-25T10:19:09.478Z,5.64
2023-02-25T10:20:09.513Z,5.62
2023-02-25T10:21:09.482Z,5.64
2023-02-25T10:22:09.475Z,5.56
2023-02-25T10:23:09.434Z,5.57
2023-02-25T10:24:09.423Z,5.53
2023-02-25T10:25:09.417Z,5.47
2023-02-25T10:26:09.410Z,5.61
2023-02-25T10:27:09.409Z,5.48
2023-02-25T10:28:09.393Z,5.47
2023-02-25T10:29:09.365Z,5.56
2023-02-25T10:30:09.355Z,5.66
2023-02-25T10:31:09.484Z,5.66
2023-02-25T10:32:09.636Z,5.69
2023-02-25T10:33:09.341Z,6.01
2023-02-25T10:34:09.332Z,6.20
2023-02-25T10:35:09.300Z,6.44
2023-02-25T10:36:09.289Z,6.62
2023-02-25T10:37:09.276Z,6.87
2023-02-25T10:38:09.276Z,7.11
2023-02-25T10:39:09.276Z,7.29
2023-02-25T10:40:09.247Z,7.28
2023-02-25T10:41:09.233Z,7.45
2023-02-25T10:42:09.223Z,7.53
2023-02-25T10:43:09.207Z,7.63
2023-02-25T10:44:09.207Z,7.79
2023-02-25T10:45:09.228Z,7.58
2023-02-25T10:46:09.208Z,7.43
2023-02-25T10:47:09.168Z,7.23
2023-02-25T10:48:09.173Z,7.06
2023-02-25T10:49:15.771Z,7.00
2023-02-25T10:50:10.149Z,7.02
2023-02-25T10:51:09.130Z,7.06
2023-02-25T10:52:09.113Z,7.15
2023-02-25T10:53:09.098Z,7.15
2023-02-25T10:54:09.122Z,7.31
2023-02-25T10:55:09.086Z,7.45
2023-02-25T10:56:09.073Z,7.51
2023-02-25T10:57:09.067Z,7.39
2023-02-25T10:58:09.040Z,7.36
2023-02-25T10:59:09.034Z,7.25
2023-02-25T11:00:09.017Z,7.32
2023-02-25T11:01:09.066Z,7.15
2023-02-25T11:02:09.030Z,7.28
2023-02-25T11:03:08.997Z,7.25
2023-02-25T11:04:08.994Z,7.32
2023-02-25T11:05:08.960Z,7.24
2023-02-25T11:06:08.951Z,7.39
2023-02-25T11:07:08.944Z,7.29
2023-02-25T11:08:08.928Z,7.32
2023-02-25T11:09:08.922Z,7.28
2023-02-25T11:10:08.904Z,7.35
2023-02-25T11:11:08.904Z,7.50
2023-02-25T11:12:08.902Z,7.75
2023-02-25T11:13:08.869Z,8.00
2023-02-25T11:14:08.860Z,8.08
2023-02-25T11:15:08.861Z,7.83
2023-02-25T11:16:08.930Z,7.94
2023-02-25T11:17:08.830Z,8.00
2023-02-25T11:18:08.814Z,8.16
2023-02-25T11:19:08.800Z,8.34
2023-02-25T11:20:08.811Z,8.48
2023-02-25T11:21:08.811Z,8.28
2023-02-25T11:22:08.784Z,8.13
2023-02-25T11:23:08.758Z,8.03
2023-02-25T11:24:08.745Z,7.90
2023-02-25T11:25:08.738Z,7.85
2023-02-25T11:26:08.724Z,7.66
2023-02-25T11:27:08.721Z,7.72
2023-02-25T11:28:08.707Z,7.63
2023-02-25T11:29:08.683Z,7.69
2023-02-25T11:30:08.676Z,7.85
2023-02-25T11:31:08.729Z,7.91
2023-02-25T11:32:08.806Z,7.80
2023-02-25T11:33:08.939Z,7.60
2023-02-25T11:34:08.635Z,7.53
2023-02-25T11:35:08.640Z,7.67
2023-02-25T11:36:08.664Z,7.69
2023-02-25T11:37:09.433Z,7.56
2023-02-25T11:38:08.583Z,7.51
2023-02-25T11:39:08.589Z,7.58
2023-02-25T11:40:08.563Z,7.73
2023-02-25T11:41:08.549Z,7.93
2023-02-25T11:42:08.560Z,8.26
2023-02-25T11:43:08.526Z,8.44
2023-02-25T11:44:08.520Z,8.49
2023-02-25T11:45:08.523Z,8.37
2023-02-25T11:46:08.553Z,8.31
2023-02-25T11:47:08.506Z,8.44
2023-02-25T11:48:08.477Z,8.45
2023-02-25T11:49:08.463Z,8.56
2023-02-25T11:50:08.448Z,8.64
2023-02-25T11:51:08.442Z,8.64
2023-02-25T11:52:08.444Z,8.76
2023-02-25T11:53:08.416Z,8.84
2023-02-25T11:54:08.424Z,8.81
2023-02-25T11:55:09.048Z,8.81
2023-02-25T11:56:08.397Z,8.76
2023-02-25T11:57:08.383Z,8.74
2023-02-25T11:58:08.355Z,8.73
2023-02-25T11:59:08.341Z,8.69
2023-02-25T12:00:08.334Z,8.60
2023-02-25T12:01:08.327Z,8.49
2023-02-25T12:02:08.332Z,8.56
2023-02-25T12:03:08.373Z,8.48
2023-02-25T12:04:08.286Z,8.45
2023-02-25T12:05:08.276Z,8.42
2023-02-25T12:06:08.278Z,8.53
2023-02-25T12:07:08.270Z,8.28
2023-02-25T12:08:14.520Z,8.33
2023-02-25T12:09:09.243Z,8.03
2023-02-25T12:10:08.217Z,7.93
2023-02-25T12:11:08.205Z,7.83
2023-02-25T12:12:08.198Z,7.66
2023-02-25T12:13:08.184Z,7.48
2023-02-25T12:14:08.179Z,7.56
2023-02-25T12:15:08.179Z,7.61
2023-02-25T12:16:08.277Z,7.83
2023-02-25T12:17:08.141Z,7.72
2023-02-25T12:18:08.129Z,7.51
2023-02-25T12:19:15.240Z,7.66
2023-02-25T12:20:08.102Z,7.56
2023-02-25T12:21:08.088Z,7.80
2023-02-25T12:22:08.100Z,7.76
2023-02-25T12:23:08.081Z,7.80
2023-02-25T12:24:08.093Z,7.93
2023-02-25T12:25:08.065Z,8.03
2023-02-25T12:26:08.035Z,8.13
2023-02-25T12:27:08.022Z,8.05
2023-02-25T12:28:08.050Z,7.90
2023-02-25T12:29:08.000Z,7.83
2023-02-25T12:30:08.012Z,7.82
2023-02-25T12:31:08.027Z,7.67
2023-02-25T12:32:08.092Z,7.60
2023-02-25T12:33:07.953Z,7.39
2023-02-25T12:34:07.950Z,7.38
2023-02-25T12:35:07.941Z,7.31
2023-02-25T12:36:07.945Z,7.28
2023-02-25T12:37:07.908Z,7.40
2023-02-25T12:38:07.899Z,7.53
2023-02-25T12:39:07.909Z,7.67
2023-02-25T12:40:07.895Z,7.87
2023-02-25T12:41:07.894Z,7.91
2023-02-25T12:42:07.854Z,7.93
2023-02-25T12:43:07.840Z,8.09
2023-02-25T12:44:07.839Z,8.18
2023-02-25T12:45:07.822Z,8.16
2023-02-25T12:46:07.834Z,8.18
2023-02-25T12:47:07.816Z,8.16
2023-02-25T12:48:07.803Z,8.19
2023-02-25T12:49:07.783Z,8.33
2023-02-25T12:50:07.768Z,8.23
2023-02-25T12:51:07.748Z,8.09
2023-02-25T12:52:07.753Z,8.03
2023-02-25T12:53:07.753Z,7.97
2023-02-25T12:54:07.719Z,7.95
2023-02-25T12:55:07.711Z,8.09
2023-02-25T12:56:07.741Z,8.06
2023-02-25T12:57:07.684Z,8.12
2023-02-25T12:58:07.681Z,8.08
2023-02-25T12:59:07.697Z,7.79
2023-02-25T13:00:07.658Z,7.77
2023-02-25T13:01:07.673Z,7.79
2023-02-25T13:02:07.645Z,7.94
2023-02-25T13:03:07.617Z,8.06
2023-02-25T13:04:07.617Z,8.06
2023-02-25T13:05:07.590Z,8.16
2023-02-25T13:06:07.586Z,8.13
2023-02-25T13:07:07.579Z,8.05
2023-02-25T13:08:07.581Z,8.03
2023-02-25T13:09:07.553Z,8.08
2023-02-25T13:10:07.540Z,8.08
2023-02-25T13:11:07.548Z,8.13
2023-02-25T13:12:12.215Z,8.20
2023-02-25T13:13:08.509Z,8.19
2023-02-25T13:14:07.488Z,8.20
2023-02-25T13:15:07.491Z,8.16
2023-02-25T13:16:07.489Z,8.23
2023-02-25T13:17:07.478Z,8.19
2023-02-25T13:18:07.478Z,8.23